Terminal Aerodrome Forecast
Issued by NWS

Home | Current Version | Previous Version | Text Only | Print | Product List | Glossary On
Versions: 1 2 3 4 5 6 7 8 9 10 11 12 13 14 15 16 17 18 19
000
FTUS43 KDVN 101848 AAA
TAFCID
TAF AMD
KCID 101848Z 1019/1118 16008KT 2SM -SN BKN028 OVC040
     FM102100 13010KT 1 1/2SM -SN BR OVC015
     FM110300 12010KT 3/4SM -SN OVC010
     FM111200 14011KT 2SM -SN BR OVC015=

USA.gov is the U.S. government's official web portal to all federal, state and local government web resources and services.